Time;durP1;ratioP1;P1;durP2;ratioP2;P2;SDS_P1;SDS_P2;PMS_P1;PMS_P2;Temp;Humidity;BMP_temperature;BMP_pressure;BME280_temperature;BME280_humidity;BME280_pressure;Samples;Min_cycle;Max_cycle;Signal;HPM_P1;HPM_P2
2023/06/24 00:02:13;;;;;;;89.27;2.40;;;23.00;28.30;;;;;;4974518;28;20251;-72
2023/06/24 00:04:39;;;;;;;89.97;2.40;;;23.00;29.00;;;;;;4974540;28;20461;-71
2023/06/24 00:07:05;;;;;;;89.93;2.57;;;23.00;28.80;;;;;;4974617;28;20188;-71
2023/06/24 00:09:31;;;;;;;89.60;2.50;;;22.90;28.80;;;;;;4974127;28;20550;-71
2023/06/24 00:11:58;;;;;;;89.90;2.70;;;22.80;29.50;;;;;;4973459;28;20441;-71
2023/06/24 00:14:26;;;;;;;89.30;2.33;;;22.70;29.40;;;;;;4974506;28;20466;-71
2023/06/24 00:16:52;;;;;;;89.50;2.50;;;22.70;30.10;;;;;;4974368;28;20886;-71
2023/06/24 00:19:23;;;;;;;89.37;2.40;;;22.60;29.60;;;;;;4974612;28;20787;-71
2023/06/24 00:21:51;;;;;;;89.50;2.60;;;22.60;30.00;;;;;;4974211;28;20827;-71
2023/06/24 00:24:19;;;;;;;89.47;2.47;;;22.60;29.30;;;;;;4974514;28;20409;-71
2023/06/24 00:26:45;;;;;;;90.60;2.97;;;22.60;29.50;;;;;;4974132;28;20463;-71
2023/06/24 00:29:11;;;;;;;89.77;2.60;;;22.60;30.30;;;;;;4974279;28;20420;-71
2023/06/24 00:31:37;;;;;;;89.57;2.30;;;22.60;29.30;;;;;;4974407;28;20944;-71
2023/06/24 00:34:02;;;;;;;92.10;2.57;;;22.70;29.40;;;;;;4974571;28;20169;-73
2023/06/24 00:36:28;;;;;;;89.23;2.30;;;22.80;28.00;;;;;;4975356;28;20192;-71
2023/06/24 00:38:55;;;;;;;89.87;2.57;;;22.80;29.30;;;;;;4976160;28;20260;-73
2023/06/24 00:41:20;;;;;;;89.50;2.40;;;22.50;30.70;;;;;;4975454;28;20208;-72
2023/06/24 00:43:46;;;;;;;90.10;2.77;;;22.40;30.90;;;;;;4975736;28;20477;-71
2023/06/24 00:46:15;;;;;;;90.37;2.77;;;22.30;29.60;;;;;;4975456;28;20289;-73
2023/06/24 00:48:41;;;;;;;89.20;2.33;;;22.20;30.40;;;;;;4975874;28;20175;-72
2023/06/24 00:51:06;;;;;;;89.57;2.37;;;22.20;31.70;;;;;;4976786;28;20531;-73
2023/06/24 00:53:32;;;;;;;90.97;2.63;;;22.00;31.10;;;;;;4976767;28;20835;-72
2023/06/24 00:56:02;;;;;;;89.67;2.40;;;21.50;30.50;;;;;;4977346;28;20248;-72
2023/06/24 00:58:30;;;;;;;90.07;2.73;;;21.60;32.70;;;;;;4976407;28;20263;-73
2023/06/24 01:00:57;;;;;;;89.30;2.43;;;21.50;32.20;;;;;;4977138;28;20442;-72
2023/06/24 01:03:27;;;;;;;89.60;2.33;;;21.70;33.10;;;;;;4976499;28;20428;-72
2023/06/24 01:05:54;;;;;;;89.17;2.17;;;21.80;31.80;;;;;;4975354;28;20851;-72
2023/06/24 01:08:22;;;;;;;89.47;2.63;;;21.70;32.00;;;;;;4975166;28;20406;-72
2023/06/24 01:10:49;;;;;;;89.47;2.40;;;21.60;31.70;;;;;;4975152;28;20516;-73
2023/06/24 01:13:15;;;;;;;89.47;2.40;;;21.70;32.40;;;;;;4975535;28;20439;-72
2023/06/24 01:15:41;;;;;;;90.10;2.53;;;21.40;32.20;;;;;;4974510;28;20414;-71
2023/06/24 01:18:25;;;;;;;89.47;2.40;;;21.40;33.00;;;;;;4975352;28;20429;-72
2023/06/24 01:21:11;;;;;;;89.30;2.10;;;21.60;32.30;;;;;;4974042;28;20765;-72
2023/06/24 01:24:01;;;;;;;90.47;2.77;;;21.70;32.80;;;;;;4975723;28;21117;-72
2023/06/24 01:26:48;;;;;;;90.60;2.40;;;21.60;31.90;;;;;;4975627;28;20936;-73
2023/06/24 01:29:30;;;;;;;90.17;2.50;;;21.50;31.60;;;;;;4975484;28;20399;-72
2023/06/24 01:32:01;;;;;;;90.20;2.77;;;21.70;32.10;;;;;;4974212;28;21049;-72
2023/06/24 01:34:40;;;;;;;89.57;2.43;;;21.70;32.30;;;;;;4974414;28;20877;-72
2023/06/24 01:37:17;;;;;;;89.47;2.17;;;21.70;31.80;;;;;;4974879;28;20401;-72
2023/06/24 01:39:59;;;;;;;89.67;2.30;;;21.80;32.90;;;;;;4974648;28;20423;-73
2023/06/24 01:42:25;;;;;;;89.60;2.30;;;21.80;32.50;;;;;;4974908;28;20401;-71
2023/06/24 01:44:52;;;;;;;90.37;2.60;;;21.80;31.80;;;;;;4974651;28;20509;-72
2023/06/24 01:47:22;;;;;;;89.70;2.43;;;21.60;32.20;;;;;;4975097;28;20374;-73
2023/06/24 01:49:51;;;;;;;89.37;2.10;;;21.70;32.80;;;;;;4973715;28;20414;-72
2023/06/24 01:52:18;;;;;;;89.40;2.20;;;21.60;33.60;;;;;;4974513;28;20438;-72
2023/06/24 01:54:47;;;;;;;92.17;2.90;;;21.60;33.20;;;;;;4974275;28;20465;-73
2023/06/24 01:57:14;;;;;;;89.40;2.17;;;21.60;33.30;;;;;;4974854;28;20488;-72
2023/06/24 01:59:42;;;;;;;89.67;2.40;;;21.60;32.70;;;;;;4974943;28;20413;-72
2023/06/24 02:02:08;;;;;;;89.53;2.20;;;21.60;33.30;;;;;;4974604;28;20437;-73
2023/06/24 02:04:36;;;;;;;89.90;2.47;;;21.60;33.20;;;;;;4974423;28;20418;-73
2023/06/24 02:07:03;;;;;;;89.80;2.40;;;21.50;33.80;;;;;;4974132;28;20410;-74
2023/06/24 02:09:31;;;;;;;89.77;2.40;;;21.60;32.80;;;;;;4974526;28;20497;-73
2023/06/24 02:11:58;;;;;;;89.70;2.37;;;21.50;33.30;;;;;;4974533;28;20528;-71
2023/06/24 02:14:26;;;;;;;90.63;2.53;;;21.50;34.40;;;;;;4974393;28;20413;-73
2023/06/24 02:16:57;;;;;;;89.87;2.40;;;21.50;32.90;;;;;;4974557;28;20423;-72
2023/06/24 02:19:29;;;;;;;90.50;2.80;;;21.40;33.90;;;;;;4974715;28;20410;-71
2023/06/24 02:21:56;;;;;;;89.90;2.40;;;21.40;33.40;;;;;;4974248;28;20457;-74
2023/06/24 02:24:23;;;;;;;90.33;2.40;;;21.20;34.40;;;;;;4975079;28;20781;-73
2023/06/24 02:26:50;;;;;;;89.50;2.30;;;20.80;35.40;;;;;;4974961;28;20458;-72
2023/06/24 02:29:17;;;;;;;89.77;2.30;;;20.80;35.10;;;;;;4975384;28;20417;-73
2023/06/24 02:31:42;;;;;;;90.40;2.70;;;20.70;36.10;;;;;;4977613;28;20518;-74
2023/06/24 02:34:08;;;;;;;91.37;2.67;;;20.50;37.30;;;;;;4979736;28;20915;-73
2023/06/24 02:36:34;;;;;;;90.27;2.47;;;20.40;37.50;;;;;;4979223;28;20209;-73
2023/06/24 02:38:59;;;;;;;90.97;2.63;;;20.30;37.80;;;;;;4979354;28;20183;-73
2023/06/24 02:41:25;;;;;;;91.07;2.70;;;19.80;39.30;;;;;;4979330;28;20596;-70
2023/06/24 02:43:51;;;;;;;90.30;2.50;;;19.80;40.10;;;;;;4978638;28;20207;-73
2023/06/24 02:46:17;;;;;;;91.23;3.00;;;20.20;39.30;;;;;;4978307;28;20289;-73
2023/06/24 02:48:45;;;;;;;90.87;2.53;;;20.40;38.10;;;;;;4978834;28;20914;-73
2023/06/24 02:51:12;;;;;;;90.70;2.57;;;20.50;38.00;;;;;;4978766;28;20444;-71
2023/06/24 02:53:38;;;;;;;91.70;2.77;;;20.40;38.70;;;;;;4978238;28;20415;-72
2023/06/24 02:56:06;;;;;;;90.60;2.40;;;20.30;38.60;;;;;;4978494;28;20933;-72
2023/06/24 02:58:32;;;;;;;97.60;2.90;;;20.40;38.10;;;;;;4977659;28;20415;-72
2023/06/24 03:01:03;;;;;;;90.27;2.07;;;20.40;38.10;;;;;;4977954;28;20785;-73
2023/06/24 03:03:29;;;;;;;91.27;2.77;;;20.50;36.90;;;;;;4977535;28;20780;-73
2023/06/24 03:05:56;;;;;;;90.87;2.53;;;20.60;36.50;;;;;;4976975;28;20863;-73
2023/06/24 03:08:24;;;;;;;91.37;2.67;;;20.70;36.30;;;;;;4976815;28;20445;-73
2023/06/24 03:10:58;;;;;;;90.53;2.10;;;20.60;37.60;;;;;;4976310;28;20444;-72
2023/06/24 03:13:25;;;;;;;91.00;2.63;;;20.50;37.40;;;;;;4977795;28;20405;-72
2023/06/24 03:15:51;;;;;;;90.93;2.43;;;20.30;39.00;;;;;;4977363;28;20994;-72
2023/06/24 03:18:17;;;;;;;91.57;2.80;;;20.40;37.70;;;;;;4977675;28;20441;-72
2023/06/24 03:20:43;;;;;;;90.77;2.47;;;20.40;38.20;;;;;;4977313;28;20214;-73
2023/06/24 03:23:09;;;;;;;91.17;2.50;;;20.40;38.10;;;;;;4976316;28;20965;-73
2023/06/24 03:25:35;;;;;;;93.73;3.13;;;20.50;37.00;;;;;;4976303;28;20258;-72
2023/06/24 03:28:03;;;;;;;91.77;2.70;;;20.70;36.50;;;;;;4976330;28;20286;-73
2023/06/24 03:30:29;;;;;;;91.17;2.60;;;20.80;36.40;;;;;;4976290;28;20927;-73
2023/06/24 03:33:20;;;;;;;91.20;2.47;;;20.80;36.00;;;;;;4977706;23;20423;31
2023/06/24 03:35:45;;;;;;;91.10;2.50;;;20.70;36.20;;;;;;4933039;29;20203;-71
2023/06/24 03:38:11;;;;;;;92.10;2.57;;;20.80;36.00;;;;;;4936782;29;20405;-70
2023/06/24 03:40:37;;;;;;;90.70;2.40;;;20.80;36.20;;;;;;4936756;29;20187;-71
2023/06/24 03:43:02;;;;;;;91.80;2.73;;;20.80;36.50;;;;;;4936761;29;20442;-70
2023/06/24 03:45:28;;;;;;;91.80;2.77;;;20.60;38.20;;;;;;4936175;29;20572;-70
2023/06/24 03:47:54;;;;;;;91.20;2.63;;;20.50;38.90;;;;;;4936834;29;20654;-70
2023/06/24 03:50:19;;;;;;;90.97;2.60;;;20.40;39.20;;;;;;4936590;29;20172;-70
2023/06/24 03:52:45;;;;;;;91.87;3.00;;;20.10;39.00;;;;;;4936753;29;20198;-70
2023/06/24 03:55:11;;;;;;;91.67;2.43;;;20.10;40.60;;;;;;4935924;29;20269;-71
2023/06/24 03:57:37;;;;;;;91.40;2.60;;;20.00;40.10;;;;;;4936507;29;20186;-70
2023/06/24 04:00:16;;;;;;;91.73;2.70;;;20.10;40.00;;;;;;4935399;29;20186;-70
2023/06/24 04:02:43;;;;;;;91.20;2.30;;;20.20;40.50;;;;;;4936538;29;20409;-70
2023/06/24 04:05:09;;;;;;;91.17;2.33;;;19.90;39.60;;;;;;4935855;29;20550;-70
2023/06/24 04:07:35;;;;;;;91.70;2.60;;;19.40;41.10;;;;;;4936045;29;20418;-70
2023/06/24 04:10:04;;;;;;;91.97;2.70;;;19.00;43.20;;;;;;4936392;29;20421;-70
2023/06/24 04:12:29;;;;;;;91.47;2.70;;;19.20;42.20;;;;;;4936180;29;20184;-70
2023/06/24 04:14:55;;;;;;;92.00;2.87;;;19.10;43.00;;;;;;4936019;29;20730;-70
2023/06/24 04:17:21;;;;;;;91.50;2.37;;;19.30;42.90;;;;;;4936136;29;20663;-70
2023/06/24 04:19:46;;;;;;;91.97;2.60;;;19.60;42.80;;;;;;4935971;29;20182;-70
2023/06/24 04:22:12;;;;;;;91.30;2.20;;;19.80;41.50;;;;;;4936570;29;20174;-70
2023/06/24 04:24:37;;;;;;;92.30;2.50;;;19.90;41.10;;;;;;4935684;29;20206;-70
2023/06/24 04:27:03;;;;;;;92.40;2.90;;;20.20;41.00;;;;;;4936045;29;20560;-70
2023/06/24 04:29:29;;;;;;;92.20;2.60;;;20.10;40.80;;;;;;4935982;29;20176;-71
2023/06/24 04:31:54;;;;;;;92.60;2.80;;;20.40;40.20;;;;;;4936003;29;20462;-70
2023/06/24 04:34:20;;;;;;;92.67;2.93;;;20.20;40.50;;;;;;4946274;29;20218;-71
2023/06/24 04:36:45;;;;;;;92.00;2.50;;;20.30;40.70;;;;;;4954565;29;20331;-70
2023/06/24 04:39:11;;;;;;;92.43;2.83;;;20.30;40.30;;;;;;4955086;29;20182;-71
2023/06/24 04:41:36;;;;;;;92.00;2.50;;;20.20;39.90;;;;;;4954815;29;20178;-70
2023/06/24 04:44:03;;;;;;;92.77;2.70;;;20.10;39.10;;;;;;4955118;29;20329;-71
2023/06/24 04:46:29;;;;;;;92.40;3.00;;;19.70;40.70;;;;;;4954390;29;20213;-70
2023/06/24 04:48:54;;;;;;;92.50;2.80;;;19.40;41.70;;;;;;4955036;29;20418;-70
2023/06/24 04:51:20;;;;;;;93.87;3.17;;;19.60;41.30;;;;;;4954438;29;20195;-70
2023/06/24 04:53:45;;;;;;;92.17;2.73;;;19.50;41.30;;;;;;4954135;28;20190;-70
2023/06/24 04:56:11;;;;;;;92.50;2.70;;;19.40;42.80;;;;;;4954154;29;20206;-71
2023/06/24 04:58:37;;;;;;;93.50;3.13;;;20.10;42.00;;;;;;4954694;29;20658;-70
2023/06/24 05:01:02;;;;;;;93.03;2.93;;;20.00;41.60;;;;;;4955004;29;20642;-70
2023/06/24 05:03:28;;;;;;;92.10;2.40;;;19.30;41.50;;;;;;4954386;29;20224;-70
2023/06/24 05:05:53;;;;;;;93.27;3.03;;;19.40;43.00;;;;;;4954182;29;20198;-70
2023/06/24 05:08:19;;;;;;;96.17;3.20;;;19.30;42.70;;;;;;4954460;29;20639;-70
2023/06/24 05:10:44;;;;;;;92.00;2.40;;;19.40;42.40;;;;;;4954180;29;20252;-71
2023/06/24 05:13:10;;;;;;;92.40;2.40;;;20.00;41.70;;;;;;4954309;29;20174;-70
2023/06/24 05:15:35;;;;;;;91.97;2.60;;;20.10;40.90;;;;;;4954030;29;20209;-70
2023/06/24 05:18:01;;;;;;;92.50;2.70;;;20.50;40.50;;;;;;4954086;29;20182;-70
2023/06/24 05:20:27;;;;;;;93.27;3.00;;;20.10;39.60;;;;;;4954251;29;20242;-70
2023/06/24 05:22:52;;;;;;;92.10;2.60;;;19.70;41.90;;;;;;4954575;29;20263;-70
2023/06/24 05:25:18;;;;;;;92.20;2.50;;;19.90;41.50;;;;;;4953830;29;20254;-70
2023/06/24 05:27:46;;;;;;;93.20;2.90;;;19.80;40.20;;;;;;4954273;29;20198;-70
2023/06/24 05:30:14;;;;;;;92.20;2.63;;;19.70;41.40;;;;;;4937101;29;20172;-70
2023/06/24 05:32:39;;;;;;;91.97;2.40;;;20.00;41.60;;;;;;4954229;29;20420;-70
2023/06/24 05:35:05;;;;;;;92.07;2.50;;;20.20;39.70;;;;;;4953604;29;20485;-70
2023/06/24 05:37:31;;;;;;;92.67;2.77;;;20.10;39.80;;;;;;4953745;29;20188;-70
2023/06/24 05:39:57;;;;;;;92.03;2.70;;;20.30;41.90;;;;;;4953924;29;20559;-70
2023/06/24 05:42:23;;;;;;;92.67;2.70;;;20.70;40.80;;;;;;4953692;29;20184;-71
2023/06/24 05:44:49;;;;;;;92.47;2.80;;;21.10;40.10;;;;;;4953694;29;20446;-71
2023/06/24 05:47:14;;;;;;;91.87;2.40;;;21.20;39.20;;;;;;4953841;29;20825;-70
2023/06/24 05:49:40;;;;;;;91.90;2.40;;;21.40;39.20;;;;;;4953697;29;20234;-70
2023/06/24 05:52:06;;;;;;;92.00;2.60;;;20.70;37.30;;;;;;4953995;29;20172;-71
2023/06/24 05:54:31;;;;;;;91.70;2.37;;;20.00;39.50;;;;;;4953382;29;20196;-70
2023/06/24 05:56:57;;;;;;;92.27;2.70;;;20.20;39.10;;;;;;4953699;29;20784;-70
2023/06/24 05:59:22;;;;;;;94.20;3.40;;;20.10;40.40;;;;;;4953722;29;20186;-70
2023/06/24 06:01:48;;;;;;;91.50;2.27;;;20.70;39.00;;;;;;4953650;29;20172;-70
2023/06/24 06:04:14;;;;;;;91.90;2.90;;;20.60;40.00;;;;;;4953471;29;20271;-71
2023/06/24 06:06:39;;;;;;;91.80;2.53;;;21.20;38.50;;;;;;4952426;28;20668;-71
2023/06/24 06:09:05;;;;;;;92.00;2.70;;;21.30;37.20;;;;;;4953506;29;20179;-70
2023/06/24 06:11:31;;;;;;;93.10;3.43;;;21.50;37.60;;;;;;4953390;29;20172;-71
2023/06/24 06:13:56;;;;;;;91.90;2.80;;;21.30;37.40;;;;;;4953490;29;20590;-71
2023/06/24 06:16:22;;;;;;;91.67;2.87;;;21.60;36.10;;;;;;4953162;29;20171;-70
2023/06/24 06:18:48;;;;;;;91.53;2.63;;;21.10;36.20;;;;;;4936258;29;20188;-70
2023/06/24 06:21:13;;;;;;;91.80;2.80;;;20.80;37.60;;;;;;4953152;29;20180;-70
2023/06/24 06:23:39;;;;;;;91.47;2.50;;;20.60;38.00;;;;;;4953064;29;20577;-70
2023/06/24 06:26:05;;;;;;;92.07;2.87;;;20.60;39.20;;;;;;4952873;29;20299;-70
2023/06/24 06:28:30;;;;;;;92.07;3.03;;;20.80;38.10;;;;;;4953144;29;20163;-70
2023/06/24 06:30:57;;;;;;;91.47;2.67;;;20.50;38.50;;;;;;4953504;29;20851;-70
2023/06/24 06:33:23;;;;;;;90.90;2.20;;;20.80;38.70;;;;;;4952973;29;20203;-70
2023/06/24 06:35:48;;;;;;;92.07;2.97;;;21.00;37.80;;;;;;4953130;29;20510;-70
2023/06/24 06:38:14;;;;;;;91.57;2.90;;;21.20;37.80;;;;;;4953288;29;20412;-70
2023/06/24 06:40:40;;;;;;;92.17;2.97;;;21.30;36.90;;;;;;4953577;29;20615;-70
2023/06/24 06:43:06;;;;;;;91.57;2.30;;;21.70;37.00;;;;;;4953003;29;20260;-70
2023/06/24 06:45:31;;;;;;;91.30;2.70;;;22.10;35.20;;;;;;4935512;29;20540;-70
2023/06/24 06:47:57;;;;;;;91.00;2.50;;;21.90;36.20;;;;;;4953235;29;20550;-70
2023/06/24 06:50:22;;;;;;;91.60;2.90;;;21.40;36.10;;;;;;4952859;29;20175;-70
2023/06/24 06:52:48;;;;;;;92.40;2.93;;;21.20;37.00;;;;;;4953203;29;20175;-71
2023/06/24 06:55:14;;;;;;;91.07;2.70;;;21.40;37.30;;;;;;4952829;29;20206;-70
2023/06/24 06:57:39;;;;;;;91.17;2.67;;;21.60;36.40;;;;;;4953107;29;20193;-70
2023/06/24 07:00:05;;;;;;;91.17;2.60;;;22.20;35.20;;;;;;4953152;29;20178;-70
2023/06/24 07:02:31;;;;;;;91.07;2.73;;;21.70;35.30;;;;;;4952952;29;20756;-70
2023/06/24 07:04:56;;;;;;;90.60;2.60;;;21.60;36.20;;;;;;4935450;29;20467;-71
2023/06/24 07:07:22;;;;;;;90.57;2.47;;;21.90;35.00;;;;;;4952682;29;20178;-70
2023/06/24 07:09:47;;;;;;;91.00;2.77;;;21.60;36.00;;;;;;4952998;29;20178;-71
2023/06/24 07:12:13;;;;;;;90.87;2.53;;;22.00;36.00;;;;;;4953003;29;20254;-70
2023/06/24 07:14:39;;;;;;;90.27;2.50;;;22.20;34.50;;;;;;4953049;29;20582;-70
2023/06/24 07:17:05;;;;;;;90.70;2.90;;;22.30;34.70;;;;;;4953634;28;20183;-71
2023/06/24 07:19:30;;;;;;;92.57;3.00;;;22.20;33.90;;;;;;4956469;29;20183;-70
2023/06/24 07:21:56;;;;;;;90.50;2.97;;;22.60;33.80;;;;;;4956458;29;20414;-70
2023/06/24 07:24:21;;;;;;;90.00;2.40;;;22.30;34.20;;;;;;4956289;29;20271;-71
2023/06/24 07:26:47;;;;;;;89.87;2.47;;;22.50;34.50;;;;;;4956124;29;20209;-71
2023/06/24 07:29:13;;;;;;;90.00;2.50;;;23.10;33.50;;;;;;4956254;29;20199;-70
2023/06/24 07:31:38;;;;;;;89.77;2.50;;;22.90;31.70;;;;;;4956041;29;20480;-71
2023/06/24 07:34:04;;;;;;;90.27;2.53;;;22.90;33.10;;;;;;4955922;29;20233;-71
2023/06/24 07:36:30;;;;;;;90.10;2.40;;;23.00;31.70;;;;;;4955930;29;20176;-71
2023/06/24 07:38:56;;;;;;;90.17;2.63;;;23.60;32.30;;;;;;4956131;29;20421;-70
2023/06/24 07:41:21;;;;;;;90.23;2.70;;;23.50;30.80;;;;;;4955828;29;20179;-70
2023/06/24 07:43:47;;;;;;;90.47;2.60;;;23.20;30.90;;;;;;4955963;29;20205;-71
2023/06/24 07:46:12;;;;;;;89.33;2.37;;;22.80;31.90;;;;;;4938497;29;20205;-71
2023/06/24 07:48:38;;;;;;;90.13;2.80;;;22.80;31.50;;;;;;4955710;29;20676;-71
2023/06/24 07:51:03;;;;;;;89.50;2.50;;;23.10;31.30;;;;;;4955912;29;20231;-71
2023/06/24 07:53:29;;;;;;;89.17;2.50;;;23.70;31.20;;;;;;4955713;29;20203;-70
2023/06/24 07:55:55;;;;;;;94.00;2.70;;;23.90;30.30;;;;;;4955428;29;20188;-69
2023/06/24 07:58:20;;;;;;;88.93;2.40;;;24.40;29.10;;;;;;4955670;29;20270;-69
2023/06/24 08:00:46;;;;;;;88.87;2.60;;;24.30;28.10;;;;;;4955802;29;20299;-69
2023/06/24 08:03:13;;;;;;;98.23;3.13;;;23.70;28.40;;;;;;4955397;29;20178;-68
2023/06/24 08:05:41;;;;;;;88.70;2.60;;;23.50;29.10;;;;;;4955358;29;20212;-69
2023/06/24 08:08:08;;;;;;;89.40;3.00;;;23.30;28.30;;;;;;4938047;29;20604;-69
2023/06/24 08:10:34;;;;;;;88.70;2.57;;;23.30;28.40;;;;;;4955536;29;20417;-69
2023/06/24 08:13:00;;;;;;;88.70;2.60;;;23.60;28.60;;;;;;4955430;29;20417;-69
2023/06/24 08:15:25;;;;;;;115.17;3.33;;;23.50;28.50;;;;;;4955199;29;20575;-69
2023/06/24 08:17:53;;;;;;;88.67;2.40;;;24.10;27.60;;;;;;4955396;29;20214;-69
2023/06/24 08:20:20;;;;;;;89.77;2.70;;;24.60;28.00;;;;;;4955369;29;20181;-71
2023/06/24 08:22:46;;;;;;;89.27;2.83;;;24.90;27.20;;;;;;4955312;29;20414;-69
2023/06/24 08:25:11;;;;;;;88.20;2.60;;;25.20;25.50;;;;;;4954978;29;20541;-69
2023/06/24 08:28:14;;;;;;;88.43;2.70;;;24.60;26.70;;;;;;4955233;29;20178;-69
2023/06/24 08:30:40;;;;;;;87.97;2.50;;;24.70;26.20;;;;;;4954823;29;20180;-70
2023/06/24 08:35:50;;;;;;;88.20;2.40;;;25.70;25.60;;;;;;4954749;29;20723;-69
2023/06/24 08:38:15;;;;;;;87.50;2.33;;;25.80;24.50;;;;;;4954892;29;20489;-69
2023/06/24 08:40:43;;;;;;;87.40;2.20;;;26.00;24.60;;;;;;4955032;29;20565;-69
2023/06/24 08:43:09;;;;;;;87.67;2.30;;;26.00;23.90;;;;;;4954840;29;20171;-69
2023/06/24 08:45:34;;;;;;;87.77;2.40;;;25.80;23.60;;;;;;4954660;29;20453;-69
2023/06/24 08:48:39;;;;;;;88.00;2.20;;;26.30;23.40;;;;;;4954736;29;20211;-69
2023/06/24 08:51:08;;;;;;;87.80;2.53;;;26.60;23.60;;;;;;4954608;29;20257;-69
2023/06/24 08:53:35;;;;;;;87.87;2.67;;;26.60;23.70;;;;;;4954692;29;20426;-69
2023/06/24 08:56:01;;;;;;;87.83;2.33;;;26.60;23.00;;;;;;4954447;29;20411;-69
2023/06/24 08:58:27;;;;;;;87.50;2.33;;;26.70;23.70;;;;;;4954510;29;20411;-69
2023/06/24 09:00:53;;;;;;;89.80;3.00;;;26.70;23.40;;;;;;4954882;29;20558;-69
2023/06/24 09:03:18;;;;;;;87.80;2.60;;;26.80;23.10;;;;;;4954408;29;20191;-69
2023/06/24 09:05:44;;;;;;;87.90;2.63;;;26.90;23.00;;;;;;4954453;29;20522;-69
2023/06/24 09:08:10;;;;;;;87.57;2.60;;;27.00;23.30;;;;;;4954336;29;20206;-69
2023/06/24 09:10:37;;;;;;;87.27;2.30;;;27.00;22.60;;;;;;4954650;29;20648;-69
2023/06/24 09:13:03;;;;;;;87.87;2.47;;;27.10;22.00;;;;;;4954555;29;20550;-69
2023/06/24 09:15:30;;;;;;;87.17;2.40;;;27.20;22.50;;;;;;4954067;29;20509;-71
2023/06/24 09:17:56;;;;;;;88.73;2.70;;;27.30;22.00;;;;;;4954447;29;20955;-69
2023/06/24 09:20:22;;;;;;;87.00;2.17;;;26.70;22.50;;;;;;4954247;29;20418;-69
2023/06/24 09:22:49;;;;;;;87.30;2.20;;;26.10;23.60;;;;;;4954204;29;20203;-69
2023/06/24 09:25:18;;;;;;;87.40;2.47;;;26.60;23.70;;;;;;4953840;29;20487;-69
2023/06/24 09:27:51;;;;;;;86.90;2.40;;;27.00;22.00;;;;;;4954192;29;20461;-69
2023/06/24 09:30:24;;;;;;;86.60;2.23;;;27.20;20.60;;;;;;4954152;29;20397;-69
2023/06/24 09:32:51;;;;;;;86.83;2.43;;;27.40;22.10;;;;;;4954076;29;20395;-69
2023/06/24 09:35:22;;;;;;;86.80;2.30;;;27.80;22.70;;;;;;4935951;29;20458;-69
2023/06/24 09:37:52;;;;;;;87.47;2.50;;;27.70;20.20;;;;;;4954031;29;20429;-69
2023/06/24 09:40:19;;;;;;;85.87;2.00;;;27.90;21.30;;;;;;4953829;28;20457;-69
2023/06/24 09:43:03;;;;;;;86.07;2.40;;;27.70;21.20;;;;;;4953941;29;20430;-69
2023/06/24 09:45:29;;;;;;;86.23;2.40;;;27.20;21.20;;;;;;4953464;29;20823;-69
2023/06/24 09:47:57;;;;;;;86.87;2.60;;;27.40;21.10;;;;;;4953961;29;20420;-69
2023/06/24 09:50:23;;;;;;;87.33;2.70;;;27.80;20.30;;;;;;4953436;29;20421;-69
2023/06/24 09:52:50;;;;;;;86.27;2.23;;;28.20;18.50;;;;;;4953768;29;20423;-70
2023/06/24 09:55:17;;;;;;;85.87;2.50;;;28.50;17.80;;;;;;4953075;29;20222;-70
2023/06/24 09:57:50;;;;;;;85.90;2.53;;;28.40;17.70;;;;;;4953619;29;20908;-70
2023/06/24 10:00:18;;;;;;;86.07;2.57;;;28.60;17.00;;;;;;4953506;29;20422;-70
2023/06/24 10:02:45;;;;;;;85.87;2.63;;;28.60;18.10;;;;;;4953890;29;20418;-70
2023/06/24 10:05:13;;;;;;;86.50;2.40;;;28.10;17.80;;;;;;4953338;29;20458;-72
2023/06/24 10:07:39;;;;;;;86.03;2.23;;;28.40;17.80;;;;;;4953662;29;20466;-71
2023/06/24 10:10:06;;;;;;;85.97;2.40;;;28.60;16.80;;;;;;4953205;29;20940;-70
2023/06/24 10:12:31;;;;;;;86.17;2.70;;;28.00;18.10;;;;;;4953802;29;20450;-72
2023/06/24 10:14:59;;;;;;;85.77;2.23;;;27.80;17.30;;;;;;4953113;29;20469;-71
2023/06/24 10:17:24;;;;;;;86.53;2.30;;;28.20;17.80;;;;;;4953549;29;20171;-71
2023/06/24 10:19:52;;;;;;;86.23;2.53;;;28.30;17.60;;;;;;4953297;29;20478;-71
2023/06/24 10:22:23;;;;;;;86.17;2.60;;;28.40;17.70;;;;;;4953325;29;20230;-70
2023/06/24 10:24:51;;;;;;;85.17;2.43;;;27.90;17.40;;;;;;4953099;29;20427;-70
2023/06/24 10:27:21;;;;;;;85.17;2.20;;;27.20;17.80;;;;;;4953679;29;20920;-69
2023/06/24 10:29:52;;;;;;;85.30;2.50;;;26.70;19.00;;;;;;4953339;29;20399;-69
2023/06/24 10:32:21;;;;;;;85.00;2.20;;;26.90;18.50;;;;;;4953456;29;20478;-69
2023/06/24 10:34:47;;;;;;;84.80;2.20;;;26.40;19.30;;;;;;4952669;29;20442;-69
2023/06/24 10:37:20;;;;;;;85.80;2.63;;;26.90;20.70;;;;;;4953223;29;20417;-69
2023/06/24 10:39:54;;;;;;;85.13;2.47;;;27.70;19.60;;;;;;4953226;29;20558;-69
2023/06/24 10:42:28;;;;;;;84.87;2.27;;;28.30;20.20;;;;;;4953277;29;20402;-69
2023/06/24 10:45:13;;;;;;;85.47;2.70;;;28.40;17.30;;;;;;4952528;29;20496;-69
2023/06/24 10:47:47;;;;;;;84.67;2.00;;;27.40;18.10;;;;;;4953201;29;21268;-70
2023/06/24 10:50:15;;;;;;;84.50;2.07;;;27.50;18.50;;;;;;4953001;29;20395;-70
2023/06/24 10:52:46;;;;;;;85.57;2.67;;;28.10;18.90;;;;;;4954961;28;20431;-70
2023/06/24 10:55:16;;;;;;;84.93;2.50;;;28.90;15.80;;;;;;4956500;29;20513;-70
2023/06/24 10:57:42;;;;;;;86.10;2.70;;;29.30;17.20;;;;;;4956833;29;20908;-70
2023/06/24 11:00:08;;;;;;;84.20;1.90;;;29.30;17.40;;;;;;4956387;29;20963;-70
2023/06/24 11:02:34;;;;;;;84.27;2.10;;;29.80;15.10;;;;;;4957103;29;20739;-70
2023/06/24 11:05:01;;;;;;;84.67;2.50;;;29.50;15.60;;;;;;4956329;29;20445;-69
2023/06/24 11:07:30;;;;;;;84.20;2.30;;;29.10;14.80;;;;;;4956791;29;20230;-70
2023/06/24 11:10:05;;;;;;;84.07;2.30;;;28.60;16.10;;;;;;4956624;29;20411;-70
2023/06/24 11:12:33;;;;;;;84.10;2.23;;;29.10;16.30;;;;;;4956569;29;20915;-70
2023/06/24 11:15:04;;;;;;;83.40;1.80;;;29.50;15.30;;;;;;4956256;29;20437;-70
2023/06/24 11:17:30;;;;;;;83.97;2.23;;;29.20;16.10;;;;;;4956175;29;20469;-69
2023/06/24 11:19:58;;;;;;;84.43;2.40;;;27.90;16.00;;;;;;4956567;29;20840;-69
2023/06/24 11:22:24;;;;;;;84.00;2.33;;;27.10;17.00;;;;;;4956297;29;20203;-69
2023/06/24 11:24:50;;;;;;;84.07;2.27;;;27.00;16.90;;;;;;4956209;29;20489;-69
2023/06/24 11:27:16;;;;;;;83.97;2.00;;;26.90;17.40;;;;;;4956039;29;20406;-69
2023/06/24 11:29:42;;;;;;;83.57;2.20;;;26.50;17.20;;;;;;4956303;29;20199;-69
2023/06/24 11:32:09;;;;;;;83.70;2.30;;;27.50;16.20;;;;;;4956160;29;20171;-70
2023/06/24 11:34:38;;;;;;;83.80;2.30;;;28.10;17.90;;;;;;4956037;29;20231;-70
2023/06/24 11:37:11;;;;;;;84.07;1.97;;;29.40;15.50;;;;;;4956168;29;20551;-70
2023/06/24 11:39:36;;;;;;;84.33;2.20;;;30.80;12.60;;;;;;4956000;29;20407;-70
2023/06/24 11:42:02;;;;;;;84.07;2.10;;;31.00;13.80;;;;;;4955945;29;20447;-70
2023/06/24 11:44:31;;;;;;;84.33;2.37;;;31.00;13.50;;;;;;4955818;29;20205;-70
2023/06/24 11:47:04;;;;;;;83.57;1.90;;;30.60;13.20;;;;;;4955563;29;20463;-70
2023/06/24 11:49:30;;;;;;;83.87;2.10;;;30.60;14.90;;;;;;4955995;29;20421;-70
2023/06/24 11:51:56;;;;;;;83.23;2.10;;;32.40;11.90;;;;;;4955887;29;20403;-70
2023/06/24 11:54:21;;;;;;;83.67;2.10;;;33.70;10.50;;;;;;4955663;29;20995;-70
2023/06/24 11:56:51;;;;;;;82.57;2.00;;;34.30;10.40;;;;;;4955517;29;20258;-70
2023/06/24 11:59:22;;;;;;;81.97;2.00;;;34.90;9.90;;;;;;4955792;29;20182;-70
2023/06/24 12:01:55;;;;;;;81.57;1.80;;;35.50;10.50;;;;;;4955380;29;20475;-71
2023/06/24 12:04:26;;;;;;;81.40;1.90;;;36.40;7.60;;;;;;4954349;28;20550;-71
2023/06/24 12:06:52;;;;;;;81.27;1.97;;;36.90;6.50;;;;;;4955364;29;20513;-70
2023/06/24 12:09:18;;;;;;;80.60;1.80;;;35.00;9.50;;;;;;4955645;29;20920;-71
2023/06/24 12:11:43;;;;;;;80.20;1.70;;;36.30;7.90;;;;;;4955648;29;20231;-71
2023/06/24 12:14:09;;;;;;;79.80;1.80;;;37.00;7.20;;;;;;4955319;29;20344;-70
2023/06/24 12:16:35;;;;;;;79.80;1.80;;;36.30;9.20;;;;;;4955065;29;20664;-71
2023/06/24 12:19:02;;;;;;;79.40;1.60;;;36.90;7.30;;;;;;4955525;29;20453;-71
2023/06/24 12:21:27;;;;;;;79.30;1.80;;;37.50;5.80;;;;;;4955069;29;20194;-71
2023/06/24 12:23:53;;;;;;;78.80;1.70;;;37.70;5.80;;;;;;4955335;29;20513;-71
2023/06/24 12:26:18;;;;;;;78.90;1.70;;;38.10;7.20;;;;;;4954639;29;20318;-71
2023/06/24 12:28:44;;;;;;;79.00;1.77;;;38.80;6.60;;;;;;4955279;29;20171;-71
2023/06/24 12:31:10;;;;;;;78.70;1.70;;;38.30;6.70;;;;;;4938263;29;20551;-71
2023/06/24 12:33:36;;;;;;;78.87;1.80;;;37.00;7.50;;;;;;4954853;29;20211;-70
2023/06/24 12:36:01;;;;;;;79.37;1.87;;;35.80;8.20;;;;;;4954856;29;20426;-70
2023/06/24 12:38:27;;;;;;;79.53;2.07;;;35.90;7.40;;;;;;4937439;29;20175;-71
2023/06/24 12:40:52;;;;;;;78.70;1.70;;;36.20;9.50;;;;;;4955199;29;20265;-70
2023/06/24 12:43:18;;;;;;;78.80;1.57;;;36.60;7.80;;;;;;4955043;29;20250;-71